Time;durP1;ratioP1;P1;durP2;ratioP2;P2;SDS_P1;SDS_P2;PMS_P1;PMS_P2;Temp;Humidity;BMP_temperature;BMP_pressure;BME280_temperature;BME280_humidity;BME280_pressure;Samples;Min_cycle;Max_cycle;Signal;HPM_P1;HPM_P2
2021/12/11 09:40:57;;;;;;;2.93;2.20;;;;;;;9.28;66.97;93800.63;4965840;28;20275;-76
2021/12/11 09:44:03;;;;;;;3.03;2.23;;;;;;;9.30;67.31;93801.19;4964606;28;20191;-75
2021/12/11 09:46:36;;;;;;;3.40;2.03;;;;;;;9.37;66.36;93794.00;4968161;28;20205;-75
2021/12/11 09:49:05;;;;;;;2.70;2.10;;;;;;;9.42;66.69;93802.00;4964134;28;20185;-75
2021/12/11 09:51:36;;;;;;;4.20;2.63;;;;;;;9.49;66.78;93799.25;4973396;28;20288;-75
2021/12/11 09:54:11;;;;;;;3.77;2.10;;;;;;;9.41;65.95;93801.22;4968550;28;20633;-74
2021/12/11 09:57:06;;;;;;;3.13;2.43;;;;;;;9.32;66.37;93783.41;4963564;28;20182;-75
2021/12/11 09:59:35;;;;;;;3.40;2.30;;;;;;;9.31;66.36;93782.59;4946807;28;20194;-75
2021/12/11 10:02:07;;;;;;;3.60;2.30;;;;;;;9.26;66.85;93777.22;4968783;28;20184;-75
2021/12/11 10:04:38;;;;;;;2.80;2.03;;;;;;;9.33;67.37;93767.41;4967447;28;20178;-75
2021/12/11 10:09:46;;;;;;;2.60;2.30;;;;;;;9.34;65.93;93776.88;4971685;28;20942;-75
2021/12/11 10:12:18;;;;;;;3.60;2.60;;;;;;;9.23;66.80;93761.94;4963956;28;20256;-74
2021/12/11 10:14:50;;;;;;;2.93;2.63;;;;;;;9.20;67.24;93766.84;4969766;28;20189;-75
2021/12/11 10:17:24;;;;;;;4.20;2.80;;;;;;;9.22;67.84;93770.03;4970688;28;20701;-75
2021/12/11 10:19:53;;;;;;;6.63;2.70;;;;;;;9.26;67.29;93779.03;4974132;28;20236;-75
2021/12/11 10:22:31;;;;;;;4.03;2.80;;;;;;;9.31;67.74;93772.09;4970671;28;20192;-76
2021/12/11 10:24:57;;;;;;;5.50;3.27;;;;;;;9.28;67.36;93769.13;4972297;28;20204;-76
2021/12/11 10:27:26;;;;;;;5.33;3.20;;;;;;;9.38;67.55;93778.03;4967268;28;20182;-76
2021/12/11 10:29:53;;;;;;;7.77;4.27;;;;;;;9.49;66.83;93773.00;4972133;28;20174;-76
2021/12/11 10:32:25;;;;;;;9.63;4.10;;;;;;;9.55;67.22;93777.31;4969929;28;20193;-76
2021/12/11 10:34:59;;;;;;;6.43;3.50;;;;;;;9.39;67.05;93748.09;4971571;28;20188;-75
2021/12/11 10:37:34;;;;;;;14.60;3.70;;;;;;;9.51;67.23;93769.13;4971773;28;20688;-74
2021/12/11 10:40:09;;;;;;;5.80;3.40;;;;;;;9.51;67.02;93763.84;4979254;28;20220;-75
2021/12/11 10:42:35;;;;;;;6.77;3.43;;;;;;;9.52;67.26;93765.44;4986648;28;20178;-76
2021/12/11 10:45:00;;;;;;;11.03;4.13;;;;;;;9.51;67.93;93755.97;4990030;28;20177;-75
2021/12/11 10:47:33;;;;;;;7.30;3.57;;;;;;;9.54;67.67;93752.06;4988372;28;20182;-75
2021/12/11 10:50:00;;;;;;;5.53;3.20;;;;;;;9.52;67.72;93741.00;4987960;28;20245;-75
2021/12/11 10:52:30;;;;;;;11.47;3.83;;;;;;;9.45;67.73;93741.13;4991207;28;20197;-76
2021/12/11 10:55:00;;;;;;;6.17;3.80;;;;;;;9.49;67.90;93738.84;4991563;28;20283;-77
2021/12/11 10:57:27;;;;;;;7.13;3.57;;;;;;;9.55;68.03;93732.66;4992124;28;20224;-78
2021/12/11 10:59:56;;;;;;;8.30;4.03;;;;;;;9.58;67.84;93733.00;4992319;28;20512;-78
2021/12/11 11:02:32;;;;;;;7.43;3.90;;;;;;;9.60;67.84;93735.41;4990596;28;20188;-78
2021/12/11 11:05:06;;;;;;;7.00;4.07;;;;;;;9.59;67.86;93729.34;4990167;28;20181;-79
2021/12/11 11:07:31;;;;;;;7.60;4.27;;;;;;;9.43;68.31;93707.22;4990037;28;20550;-79
2021/12/11 11:10:00;;;;;;;8.00;4.10;;;;;;;9.57;68.63;93725.34;4990667;28;20578;-79
2021/12/11 11:12:27;;;;;;;7.10;4.17;;;;;;;9.56;68.55;93710.63;4989884;28;20616;-79
2021/12/11 11:14:55;;;;;;;5.73;3.63;;;;;;;9.50;68.57;93693.97;4988616;28;20227;-79
2021/12/11 11:17:26;;;;;;;8.90;4.63;;;;;;;9.38;68.04;93682.69;4988353;28;20176;-78
2021/12/11 11:19:53;;;;;;;7.37;4.97;;;;;;;9.59;68.19;93707.53;4988705;28;20185;-78
2021/12/11 11:22:24;;;;;;;7.73;5.07;;;;;;;9.57;67.81;93704.34;4989282;28;20644;-78
2021/12/11 11:24:57;;;;;;;10.10;4.90;;;;;;;9.53;68.45;93703.19;4989070;28;20169;-78
2021/12/11 11:27:23;;;;;;;9.17;6.17;;;;;;;9.29;69.38;93658.59;4989296;28;20231;-78
2021/12/11 11:29:48;;;;;;;14.07;6.30;;;;;;;9.60;69.00;93698.63;4989498;28;20161;-78
2021/12/11 11:32:21;;;;;;;8.57;5.17;;;;;;;9.57;68.66;93688.56;4989919;28;20216;-78
2021/12/11 11:34:47;;;;;;;11.17;6.70;;;;;;;9.61;68.85;93687.06;4992521;28;20170;-78
2021/12/11 11:37:19;;;;;;;12.33;5.90;;;;;;;9.72;68.39;93688.84;4993843;28;20172;-79
2021/12/11 11:39:48;;;;;;;10.93;5.53;;;;;;;9.58;68.70;93658.66;4993196;28;20216;-79
2021/12/11 11:42:19;;;;;;;11.27;6.40;;;;;;;9.59;69.15;93670.75;4994064;28;20169;-78
2021/12/11 11:44:47;;;;;;;10.77;6.40;;;;;;;9.66;69.83;93653.81;4993576;28;20177;-79
2021/12/11 11:47:14;;;;;;;9.83;6.03;;;;;;;9.74;68.75;93663.16;4993427;28;20287;-79
2021/12/11 11:49:41;;;;;;;9.90;6.03;;;;;;;9.64;69.09;93653.25;4993428;28;20276;-78
2021/12/11 11:52:12;;;;;;;10.77;5.60;;;;;;;9.63;69.33;93648.22;4993303;28;20189;-78
2021/12/11 11:54:42;;;;;;;10.37;5.73;;;;;;;9.80;69.26;93662.19;4993210;28;20185;-78
2021/12/11 11:57:12;;;;;;;9.37;5.03;;;;;;;9.85;69.50;93672.81;4993246;28;20239;-78
2021/12/11 11:59:39;;;;;;;7.67;4.50;;;;;;;9.88;69.35;93669.72;4993226;28;20296;-78
2021/12/11 12:02:17;;;;;;;9.80;4.23;;;;;;;9.79;69.98;93661.41;4993114;28;20173;-79
2021/12/11 12:04:44;;;;;;;6.80;3.67;;;;;;;9.82;69.76;93653.06;4992859;28;20200;-79
2021/12/11 12:07:11;;;;;;;5.60;3.60;;;;;;;9.70;70.09;93635.72;4995203;28;20668;-77
2021/12/11 12:09:44;;;;;;;8.50;4.20;;;;;;;9.80;70.39;93649.88;4992529;28;20192;-77
2021/12/11 12:12:14;;;;;;;6.23;3.63;;;;;;;9.74;70.43;93655.28;4989625;28;20279;-77
2021/12/11 12:14:41;;;;;;;6.20;3.63;;;;;;;9.73;71.17;93656.28;4975074;28;20814;-77
2021/12/11 12:17:10;;;;;;;6.93;3.70;;;;;;;9.75;71.39;93656.88;4992526;28;20173;-76
2021/12/11 12:19:36;;;;;;;4.20;3.03;;;;;;;9.81;71.74;93653.28;4991547;28;20176;-77
2021/12/11 12:22:05;;;;;;;4.37;2.93;;;;;;;9.85;71.37;93657.06;4991284;28;20177;-76
2021/12/11 12:24:33;;;;;;;6.97;3.53;;;;;;;9.86;71.49;93666.50;4992599;28;20192;-77
2021/12/11 12:27:04;;;;;;;5.20;3.23;;;;;;;9.86;71.68;93650.75;4991912;28;20636;-77
2021/12/11 12:29:30;;;;;;;5.67;3.73;;;;;;;9.86;71.92;93658.63;4991903;28;20185;-76
2021/12/11 12:32:06;;;;;;;5.37;3.30;;;;;;;9.80;72.08;93670.88;4983042;28;20916;-77
2021/12/11 12:34:32;;;;;;;8.17;3.30;;;;;;;9.53;73.65;93672.47;4987862;28;20177;-77
2021/12/11 12:36:58;;;;;;;6.73;3.97;;;;;;;9.34;74.20;93666.56;4988224;28;20663;-77
2021/12/11 12:39:36;;;;;;;4.47;3.23;;;;;;;9.21;74.85;93664.22;4993203;28;20267;-77
2021/12/11 12:42:19;;;;;;;5.53;4.03;;;;;;;9.26;75.35;93664.31;4993248;28;20215;-76
2021/12/11 12:44:49;;;;;;;5.80;3.33;;;;;;;9.24;76.26;93663.78;4983456;28;20180;-76
2021/12/11 12:47:17;;;;;;;6.60;3.50;;;;;;;9.25;76.52;93659.31;4992653;28;20176;-76
2021/12/11 12:49:46;;;;;;;8.37;3.40;;;;;;;9.17;77.34;93663.06;4993332;28;20188;-76
2021/12/11 12:52:18;;;;;;;6.43;3.80;;;;;;;8.95;78.58;93644.53;4988492;28;20201;-76
2021/12/11 12:54:45;;;;;;;4.10;2.87;;;;;;;9.02;79.32;93658.31;4989175;28;20679;-77
2021/12/11 12:57:19;;;;;;;6.30;3.60;;;;;;;8.97;79.76;93660.03;4992333;28;20164;-77
2021/12/11 13:00:10;;;;;;;6.87;3.50;;;;;;;8.98;80.63;93640.66;4992622;28;20185;-76
2021/12/11 13:02:38;;;;;;;5.10;3.37;;;;;;;8.93;81.24;93646.56;4960737;28;20598;-76
2021/12/11 13:05:11;;;;;;;7.83;3.97;;;;;;;8.91;81.89;93638.13;4991193;28;20240;-77
2021/12/11 13:07:37;;;;;;;8.77;3.90;;;;;;;9.04;81.88;93642.34;4989324;28;20177;-76
2021/12/11 13:10:08;;;;;;;7.03;3.20;;;;;;;9.08;82.00;93646.13;4986395;28;20675;-77
2021/12/11 13:12:39;;;;;;;5.23;2.80;;;;;;;9.14;82.42;93650.44;4986464;28;20982;-76
2021/12/11 13:15:10;;;;;;;7.13;3.10;;;;;;;9.15;82.69;93645.97;4993392;28;20209;-76
2021/12/11 13:17:40;;;;;;;5.57;3.40;;;;;;;9.15;82.63;93646.78;4992643;28;20165;-76
2021/12/11 13:20:13;;;;;;;8.87;3.73;;;;;;;9.12;83.41;93651.69;4990708;28;20180;-76
2021/12/11 13:22:42;;;;;;;9.87;3.67;;;;;;;9.13;83.54;93653.28;4992785;28;20165;-75
2021/12/11 13:25:19;;;;;;;9.80;3.47;;;;;;;9.13;83.72;93651.47;4992754;28;20682;-76
2021/12/11 13:27:50;;;;;;;7.60;3.57;;;;;;;9.14;84.19;93650.44;4992368;28;20317;-76
2021/12/11 13:30:21;;;;;;;6.60;3.87;;;;;;;9.03;84.82;93646.00;4993203;28;20623;-76
2021/12/11 13:32:48;;;;;;;13.63;3.63;;;;;;;9.03;85.41;93643.38;4992447;28;20209;-76
2021/12/11 13:35:23;;;;;;;7.77;3.93;;;;;;;9.07;85.69;93634.81;4991453;28;20576;-77
2021/12/11 13:37:49;;;;;;;7.53;3.73;;;;;;;9.03;85.28;93622.38;4969864;28;20185;-76
2021/12/11 13:40:16;;;;;;;8.93;4.23;;;;;;;9.17;85.28;93642.06;4992133;28;20221;-76
2021/12/11 13:42:43;;;;;;;5.30;3.43;;;;;;;9.13;84.97;93614.72;4992605;28;20720;-76
2021/12/11 13:45:24;;;;;;;11.27;4.30;;;;;;;9.16;85.21;93630.00;4992833;28;20169;-76
2021/12/11 13:47:50;;;;;;;7.60;4.27;;;;;;;9.21;85.81;93634.53;4992790;28;20176;-77
2021/12/11 13:50:24;;;;;;;6.50;3.67;;;;;;;9.21;85.28;93627.47;4992803;28;20208;-76
2021/12/11 13:52:49;;;;;;;7.00;3.57;;;;;;;9.29;84.84;93636.81;4992285;28;20748;-76
2021/12/11 13:55:15;;;;;;;5.45;3.25;;;;;;;9.34;84.98;93640.31;4991015;28;20527;-76
2021/12/11 13:57:41;;;;;;;7.03;3.57;;;;;;;9.23;85.13;93635.91;4991456;28;20177;-77
2021/12/11 14:00:12;;;;;;;6.20;3.27;;;;;;;9.28;84.83;93633.38;4992528;28;20239;-76
2021/12/11 14:02:38;;;;;;;6.43;3.40;;;;;;;9.30;84.71;93631.31;4992003;28;20170;-76
2021/12/11 14:05:04;;;;;;;5.73;3.10;;;;;;;9.23;85.19;93632.50;4992251;28;20181;-77
2021/12/11 14:07:35;;;;;;;7.07;2.80;;;;;;;9.29;85.18;93642.84;4992738;28;20173;-77
2021/12/11 14:10:27;;;;;;;7.93;3.13;;;;;;;9.24;85.55;93632.25;4992036;28;20177;-76
2021/12/11 14:12:55;;;;;;;7.63;3.40;;;;;;;9.25;85.99;93636.50;4974326;28;20192;-76
2021/12/11 14:15:23;;;;;;;6.90;3.53;;;;;;;9.27;86.04;93637.03;4991915;28;20165;-76
2021/12/11 14:17:49;;;;;;;3.80;3.00;;;;;;;9.14;86.55;93621.56;4991975;28;20644;-76
2021/12/11 14:20:17;;;;;;;5.53;3.20;;;;;;;9.29;86.65;93636.81;4987636;28;20165;-76
2021/12/11 14:22:44;;;;;;;8.80;3.10;;;;;;;9.36;86.61;93634.84;4991980;28;20169;-76
2021/12/11 14:25:15;;;;;;;5.83;3.00;;;;;;;9.34;86.63;93632.44;4992364;28;20180;-76
2021/12/11 14:27:41;;;;;;;8.10;3.07;;;;;;;9.29;87.00;93634.19;4992085;28;20173;-76
2021/12/11 14:30:11;;;;;;;4.07;2.97;;;;;;;9.27;87.35;93625.72;4991982;28;20177;-77
2021/12/11 14:32:44;;;;;;;4.23;3.00;;;;;;;9.28;87.27;93620.25;4991800;28;20287;-77
2021/12/11 14:35:15;;;;;;;4.80;3.33;;;;;;;9.23;88.06;93624.63;4992083;28;20926;-76
2021/12/11 14:37:41;;;;;;;3.97;2.77;;;;;;;9.27;88.00;93629.16;4992094;28;20179;-77
2021/12/11 14:40:10;;;;;;;6.70;3.23;;;;;;;9.22;88.40;93621.19;4991782;28;20296;-76
2021/12/11 14:42:37;;;;;;;4.13;2.83;;;;;;;9.27;88.51;93625.72;4990102;28;20196;-76
2021/12/11 14:45:09;;;;;;;5.67;3.70;;;;;;;9.22;88.60;93612.50;4987846;28;20209;-76
2021/12/11 14:47:34;;;;;;;5.50;3.30;;;;;;;9.28;88.16;93601.88;4989802;28;20197;-75
2021/12/11 14:50:00;;;;;;;4.00;3.40;;;;;;;9.38;88.31;93619.66;4986074;28;20248;-75
2021/12/11 14:52:27;;;;;;;5.73;3.17;;;;;;;9.37;88.82;93612.81;4986655;28;20210;-75
2021/12/11 14:54:56;;;;;;;4.70;3.37;;;;;;;9.41;88.80;93617.38;4987608;28;20544;-75
2021/12/11 14:57:22;;;;;;;5.03;3.47;;;;;;;9.32;89.28;93610.09;4986269;28;20181;-75
2021/12/11 14:59:52;;;;;;;5.87;3.83;;;;;;;9.31;89.62;93601.41;4986529;28;20184;-76
2021/12/11 15:02:30;;;;;;;6.13;3.80;;;;;;;9.37;89.52;93600.47;4983590;28;20185;-76
2021/12/11 15:04:58;;;;;;;9.23;3.97;;;;;;;9.46;89.23;93598.25;4989887;28;20189;-76
2021/12/11 15:07:28;;;;;;;8.60;4.00;;;;;;;9.49;88.83;93602.25;4989494;28;20186;-75
2021/12/11 15:09:54;;;;;;;4.73;3.50;;;;;;;9.54;89.00;93610.22;4991386;28;20645;-76
2021/12/11 15:12:22;;;;;;;5.40;3.67;;;;;;;9.56;88.50;93601.09;4993164;28;20240;-76
2021/12/11 15:14:48;;;;;;;5.53;4.00;;;;;;;9.40;88.93;93584.25;4990871;28;20176;-77
2021/12/11 15:17:18;;;;;;;6.47;4.23;;;;;;;9.56;89.09;93613.41;4991510;28;20543;-77
2021/12/11 15:19:58;;;;;;;7.83;5.47;;;;;;;9.51;89.23;93610.72;4992043;28;20202;-77
2021/12/11 15:22:28;;;;;;;9.07;5.37;;;;;;;9.46;89.15;93599.06;4990394;28;20192;-76
2021/12/11 15:24:55;;;;;;;6.90;4.43;;;;;;;9.59;89.33;93613.75;4972607;28;20706;-77
2021/12/11 15:27:26;;;;;;;8.47;4.73;;;;;;;9.64;89.25;93611.22;4992715;28;20178;-76
2021/12/11 15:29:57;;;;;;;10.13;5.40;;;;;;;9.59;89.60;93600.63;4993512;28;20173;-78
2021/12/11 15:32:23;;;;;;;8.73;4.67;;;;;;;9.58;89.72;93606.09;4988275;28;20208;-77
2021/12/11 15:34:49;;;;;;;7.60;4.37;;;;;;;9.59;90.04;93592.75;4990311;28;20569;-77
2021/12/11 15:37:15;;;;;;;9.07;4.93;;;;;;;9.62;89.66;93594.09;4987833;28;20179;-77
2021/12/11 15:39:49;;;;;;;6.47;4.73;;;;;;;9.61;89.73;93588.03;4989519;28;20220;-77
2021/12/11 15:42:16;;;;;;;8.70;4.83;;;;;;;9.60;90.21;93589.06;4991872;28;20184;-77
2021/12/11 15:44:47;;;;;;;7.00;4.63;;;;;;;9.64;90.24;93594.66;4989393;28;20209;-77
2021/12/11 15:47:15;;;;;;;8.63;4.80;;;;;;;9.68;90.09;93596.59;4995692;28;20236;-76
2021/12/11 15:49:41;;;;;;;7.20;4.93;;;;;;;9.68;89.69;93577.41;4993425;28;20208;-77
2021/12/11 15:52:10;;;;;;;9.63;5.53;;;;;;;9.76;89.76;93592.78;4994613;28;20236;-77
2021/12/11 15:54:36;;;;;;;6.03;4.43;;;;;;;9.72;89.84;93592.44;4994183;28;20177;-76
2021/12/11 15:57:02;;;;;;;6.00;4.57;;;;;;;9.60;89.70;93562.78;4992232;28;20185;-76
2021/12/11 15:59:29;;;;;;;8.87;5.00;;;;;;;9.78;89.72;93590.69;4992253;28;20200;-76
2021/12/11 16:01:56;;;;;;;6.43;4.07;;;;;;;9.56;90.33;93560.88;4974213;28;20560;-74
2021/12/11 16:04:26;;;;;;;5.03;3.83;;;;;;;9.53;90.16;93564.78;4991572;28;20182;-74
2021/12/11 16:06:54;;;;;;;6.97;4.33;;;;;;;9.33;90.57;93553.91;4991103;28;20166;-74
2021/12/11 16:09:23;;;;;;;7.10;3.77;;;;;;;9.27;90.84;93539.09;4990804;28;20181;-74
2021/12/11 16:11:54;;;;;;;6.20;4.33;;;;;;;9.38;90.99;93554.81;4974310;28;20688;-75
2021/12/11 16:14:23;;;;;;;14.90;10.30;;;;;;;9.34;90.79;93552.91;4983210;28;20177;-74
2021/12/11 16:16:51;;;;;;;5.67;4.50;;;;;;;9.46;91.05;93562.28;4988958;28;20321;-76
2021/12/11 16:19:18;;;;;;;15.43;4.57;;;;;;;9.42;91.33;93553.31;4989161;28;20184;-73
2021/12/11 16:21:44;;;;;;;7.63;4.10;;;;;;;9.60;91.48;93565.41;4973992;28;20178;-74
2021/12/11 16:24:12;;;;;;;5.53;3.70;;;;;;;9.73;90.30;93559.06;4975223;28;20624;-76
2021/12/11 16:26:41;;;;;;;5.50;4.67;;;;;;;9.64;90.14;93550.00;4985862;28;20184;-76
2021/12/11 16:29:07;;;;;;;7.70;5.13;;;;;;;9.42;90.74;93521.00;4993936;28;20216;-74
2021/12/11 16:31:34;;;;;;;9.83;4.87;;;;;;;9.62;90.77;93552.84;4997817;28;20228;-77
2021/12/11 16:34:07;;;;;;;9.20;4.50;;;;;;;9.84;90.46;93576.63;4989680;28;20206;-76
2021/12/11 16:36:34;;;;;;;7.70;4.97;;;;;;;9.90;90.10;93578.28;4991226;28;20204;-76
2021/12/11 16:39:01;;;;;;;8.43;5.33;;;;;;;9.80;89.88;93549.19;4994285;28;20211;-78
2021/12/11 16:41:26;;;;;;;8.13;5.87;;;;;;;9.89;90.21;93566.19;4994259;28;20208;-78
2021/12/11 16:43:57;;;;;;;9.70;5.53;;;;;;;9.92;90.32;93552.56;4994217;28;20181;-78
2021/12/11 16:46:28;;;;;;;10.07;4.80;;;;;;;9.99;89.66;93547.94;4996619;28;20523;-77
2021/12/11 16:48:53;;;;;;;8.53;4.87;;;;;;;9.94;90.09;93536.56;4988993;28;20173;-77
2021/12/11 16:51:19;;;;;;;9.40;5.37;;;;;;;9.97;90.02;93531.59;4976007;28;20650;-77
2021/12/11 16:53:52;;;;;;;7.80;5.27;;;;;;;9.99;89.90;93537.44;4993305;28;20177;-77
2021/12/11 16:56:24;;;;;;;6.83;4.77;;;;;;;10.04;89.67;93537.50;4993287;28;20177;-76
2021/12/11 16:58:50;;;;;;;7.50;4.83;;;;;;;10.10;89.75;93547.06;4993676;28;20196;-76
2021/12/11 17:01:22;;;;;;;9.37;5.47;;;;;;;10.08;89.62;93543.88;4976261;28;20169;-76
2021/12/11 17:03:49;;;;;;;14.47;7.93;;;;;;;10.03;90.33;93535.91;4993622;28;20173;-77
2021/12/11 17:06:19;;;;;;;14.70;8.07;;;;;;;10.06;90.58;93540.69;4993254;28;20648;-77
2021/12/11 17:08:46;;;;;;;12.27;7.60;;;;;;;10.01;90.84;93540.63;4991011;28;20176;-77
2021/12/11 17:11:12;;;;;;;14.00;7.90;;;;;;;10.02;90.94;93538.78;4993527;28;20181;-77
2021/12/11 17:13:37;;;;;;;14.53;8.83;;;;;;;9.92;90.61;93526.28;4993584;28;20218;-77
2021/12/11 17:16:04;;;;;;;15.97;7.10;;;;;;;10.02;90.64;93538.78;4993200;28;20250;-77
2021/12/11 17:18:32;;;;;;;13.73;7.97;;;;;;;9.97;90.88;93549.22;4990203;28;20691;-77
2021/12/11 17:21:01;;;;;;;13.63;8.33;;;;;;;9.90;90.92;93546.75;4991655;28;20178;-77
2021/12/11 17:23:27;;;;;;;18.20;10.03;;;;;;;9.80;91.32;93536.06;4993459;28;20561;-76
2021/12/11 17:25:57;;;;;;;15.77;8.63;;;;;;;9.84;91.52;93543.25;4990267;28;20169;-76
2021/12/11 17:28:33;;;;;;;15.87;9.83;;;;;;;9.84;91.41;93545.06;4985861;28;20248;-77
2021/12/11 17:30:59;;;;;;;18.63;11.00;;;;;;;9.84;91.57;93531.94;4990124;28;20185;-76
2021/12/11 17:33:25;;;;;;;27.43;14.03;;;;;;;9.82;91.20;93532.19;4992430;28;20208;-76
2021/12/11 17:35:51;;;;;;;21.50;11.73;;;;;;;9.77;90.04;93526.06;4992294;28;20169;-77
2021/12/11 17:38:17;;;;;;;22.13;12.80;;;;;;;9.80;89.30;93530.81;4989792;28;20907;-77
2021/12/11 17:40:45;;;;;;;22.83;11.70;;;;;;;9.73;88.27;93530.97;4971280;28;20232;-78
2021/12/11 17:43:10;;;;;;;22.93;13.07;;;;;;;9.68;88.10;93530.09;4989360;28;20217;-78
2021/12/11 17:45:37;;;;;;;28.87;13.27;;;;;;;9.53;87.49;93517.50;4990114;28;20181;-78
2021/12/11 17:48:03;;;;;;;29.37;16.50;;;;;;;9.56;87.69;93538.03;4991937;28;20158;-78
2021/12/11 17:50:36;;;;;;;22.37;12.60;;;;;;;9.54;87.56;93536.69;4986620;28;20324;-77
2021/12/11 17:53:03;;;;;;;29.97;14.20;;;;;;;9.50;87.40;93535.56;4973779;28;20232;-77
2021/12/11 17:55:32;;;;;;;33.20;16.47;;;;;;;9.38;87.73;93511.97;4988963;28;20181;-78
2021/12/11 17:57:59;;;;;;;37.20;16.63;;;;;;;9.46;87.75;93530.78;4988601;28;20186;-78
2021/12/11 18:00:32;;;;;;;29.67;14.33;;;;;;;9.42;88.25;93528.88;4985575;28;20649;-78
2021/12/11 18:03:00;;;;;;;34.67;16.20;;;;;;;9.42;88.60;93521.78;4987900;28;20169;-78
2021/12/11 18:05:34;;;;;;;40.13;17.30;;;;;;;9.41;88.90;93514.16;4989417;28;20181;-77
2021/12/11 18:08:04;;;;;;;36.10;17.50;;;;;;;9.42;89.12;93506.03;4987296;28;20225;-78
2021/12/11 18:10:43;;;;;;;40.17;20.77;;;;;;;9.37;89.43;93505.13;4988583;28;20192;-78
2021/12/11 18:13:16;;;;;;;34.57;16.40;;;;;;;9.38;89.76;93501.47;4989393;28;20298;-77
2021/12/11 18:15:51;;;;;;;29.77;15.03;;;;;;;9.28;90.90;93486.34;4987741;28;20170;-76
2021/12/11 18:18:23;;;;;;;31.67;14.40;;;;;;;9.48;91.80;93504.28;4990116;28;20533;-77
2021/12/11 18:20:57;;;;;;;51.97;24.93;;;;;;;9.48;92.85;93501.66;4988154;28;20172;-77
2021/12/11 18:23:28;;;;;;;23.37;11.70;;;;;;;9.54;93.76;93495.44;4987040;28;20178;-77
2021/12/11 18:25:56;;;;;;;20.57;10.37;;;;;;;9.45;95.17;93468.78;4992195;28;20601;-78
2021/12/11 18:28:22;;;;;;;21.00;9.53;;;;;;;9.58;95.91;93482.66;4989210;28;20170;-78
2021/12/11 18:30:49;;;;;;;14.50;7.40;;;;;;;9.62;96.27;93486.38;4990331;28;20169;-78
2021/12/11 18:33:16;;;;;;;16.37;7.33;;;;;;;9.63;96.43;93459.88;4992556;28;20192;-77
2021/12/11 18:35:45;;;;;;;13.37;6.50;;;;;;;9.77;96.60;93487.41;4988247;28;20637;-78
2021/12/11 18:38:13;;;;;;;15.37;6.47;;;;;;;9.86;96.64;93485.16;4991164;28;20192;-78
2021/12/11 18:40:50;;;;;;;7.20;4.43;;;;;;;9.82;96.36;93470.94;4982543;28;20679;-78
2021/12/11 18:43:19;;;;;;;10.37;5.13;;;;;;;9.88;96.58;93474.44;4984357;28;20274;-78
2021/12/11 18:45:53;;;;;;;8.50;5.13;;;;;;;9.93;96.46;93467.44;4992993;28;20588;-78
2021/12/11 18:48:22;;;;;;;6.17;4.13;;;;;;;9.92;96.42;93460.56;4985860;28;20172;-77
2021/12/11 18:50:52;;;;;;;9.37;3.40;;;;;;;10.04;96.18;93473.59;4993123;28;20575;-78
2021/12/11 18:53:17;;;;;;;8.63;3.47;;;;;;;10.06;96.14;93477.59;4985152;28;20271;-78
2021/12/11 18:55:49;;;;;;;12.00;4.20;;;;;;;9.99;96.51;93453.31;4988503;28;20620;-78
2021/12/11 18:58:21;;;;;;;12.33;4.83;;;;;;;9.92;96.92;93441.38;4991428;28;20263;-78
2021/12/11 19:00:50;;;;;;;7.40;5.00;;;;;;;10.12;96.20;93460.84;4987480;28;20165;-78
2021/12/11 19:03:17;;;;;;;13.23;5.40;;;;;;;10.09;96.19;93456.09;4990639;28;20172;-78
2021/12/11 19:05:50;;;;;;;13.90;5.87;;;;;;;10.12;95.91;93452.97;4969713;28;20641;-78
2021/12/11 19:08:17;;;;;;;11.20;5.43;;;;;;;10.07;95.88;93444.22;4991680;28;20169;-78
2021/12/11 19:10:44;;;;;;;9.07;4.70;;;;;;;9.99;95.49;93410.47;4974831;28;20177;-77
2021/12/11 19:13:10;;;;;;;9.00;4.60;;;;;;;10.17;95.17;93437.28;4985782;28;20723;-78
2021/12/11 19:15:41;;;;;;;7.50;4.40;;;;;;;10.15;95.04;93433.28;4989946;28;20188;-76
2021/12/11 19:18:08;;;;;;;6.77;3.07;;;;;;;10.20;94.90;93423.66;4980577;28;20273;-77
2021/12/11 19:20:42;;;;;;;4.73;2.20;;;;;;;9.96;94.36;93397.78;4986349;28;20205;-75
2021/12/11 19:23:08;;;;;;;2.17;1.40;;;;;;;10.04;94.82;93421.03;4991885;28;20188;-77
2021/12/11 19:46:14;;;;;;;3.60;2.07;;;;;;;10.18;94.59;93398.66;5088140;28;20550;-76
2021/12/11 19:48:43;;;;;;;3.60;1.73;;;;;;;10.27;93.69;93384.03;5083111;28;20186;-76
2021/12/11 19:51:30;;;;;;;4.27;1.70;;;;;;;10.34;93.18;93402.25;5086871;28;20174;-75
2021/12/11 19:53:59;;;;;;;4.03;2.00;;;;;;;10.26;93.73;93405.31;5083798;28;20196;-75
2021/12/11 19:56:25;;;;;;;5.00;2.37;;;;;;;10.28;94.16;93400.63;5087269;28;20654;-74
2021/12/11 19:58:55;;;;;;;4.20;2.23;;;;;;;10.28;94.02;93403.25;5079996;28;20188;-74
2021/12/11 20:01:26;;;;;;;2.93;1.90;;;;;;;10.31;94.47;93392.22;5086400;28;20638;-75
2021/12/11 20:03:55;;;;;;;7.63;2.90;;;;;;;10.37;94.75;93393.88;5087317;28;20166;-75
2021/12/11 20:06:24;;;;;;;4.57;2.07;;;;;;;10.26;94.20;93390.34;5086337;28;20186;-74
2021/12/11 20:08:58;;;;;;;4.57;2.20;;;;;;;10.27;94.84;93391.94;5086352;28;20170;-75
2021/12/11 20:11:31;;;;;;;3.67;2.40;;;;;;;10.27;95.17;93391.13;5082764;28;20178;-75
2021/12/11 20:13:58;;;;;;;4.77;2.53;;;;;;;10.23;95.34;93388.19;5087446;28;20190;-75
2021/12/11 20:16:28;;;;;;;7.23;3.00;;;;;;;10.28;95.31;93383.00;5082331;28;20177;-75
2021/12/11 20:19:04;;;;;;;6.13;3.07;;;;;;;10.26;95.28;93381.66;5087481;28;20565;-75
2021/12/11 20:21:38;;;;;;;6.97;3.37;;;;;;;10.13;95.66;93357.28;5087414;28;20185;-74
2021/12/11 20:24:06;;;;;;;6.70;2.80;;;;;;;10.22;95.98;93370.81;5086899;28;20642;-75
2021/12/11 20:26:32;;;;;;;10.60;4.20;;;;;;;10.24;95.90;93370.56;5086673;28;20182;-75
2021/12/11 20:29:03;;;;;;;10.10;3.53;;;;;;;10.18;96.22;93367.09;5085974;28;20170;-75
2021/12/11 20:31:37;;;;;;;10.97;3.83;;;;;;;10.11;96.60;93358.56;5087004;28;20166;-75
2021/12/11 20:34:03;;;;;;;8.03;3.77;;;;;;;10.09;97.25;93364.06;5085666;28;20182;-75
2021/12/11 20:36:29;;;;;;;5.10;3.13;;;;;;;10.11;97.40;93364.63;5087027;28;20182;-75
2021/12/11 20:38:57;;;;;;;4.87;2.47;;;;;;;10.09;97.15;93356.19;5086965;28;20181;-75
2021/12/11 20:41:25;;;;;;;6.93;2.27;;;;;;;10.09;97.64;93361.44;5086827;28;20178;-75
2021/12/11 20:43:53;;;;;;;7.33;3.03;;;;;;;9.93;97.78;93336.00;5086920;28;20662;-75
2021/12/11 20:46:19;;;;;;;5.80;2.27;;;;;;;10.11;97.94;93354.13;5078412;28;20190;-75
2021/12/11 20:48:45;;;;;;;5.53;3.07;;;;;;;10.11;97.87;93348.06;5073262;28;20182;-75
2021/12/11 20:51:23;;;;;;;9.87;3.50;;;;;;;10.11;98.21;93333.09;5070722;28;20188;-75
2021/12/11 20:53:53;;;;;;;19.17;4.30;;;;;;;10.12;98.19;93332.03;5072778;28;20729;-74
2021/12/11 20:56:22;;;;;;;14.13;3.93;;;;;;;10.15;97.88;93328.91;5073076;28;20170;-74
2021/12/11 20:58:48;;;;;;;8.27;3.77;;;;;;;9.97;98.12;93312.66;5072611;28;20205;-74
2021/12/11 21:01:18;;;;;;;7.93;3.67;;;;;;;9.92;98.38;93313.41;5072857;28;20201;-75
2021/12/11 21:03:48;;;;;;;9.30;3.67;;;;;;;10.11;99.01;93335.72;5072883;28;20171;-75
2021/12/11 21:06:22;;;;;;;3.50;2.00;;;;;;;10.10;99.20;93328.06;5073309;28;20173;-74
2021/12/11 21:08:52;;;;;;;3.33;2.40;;;;;;;10.18;98.88;93331.09;5073136;28;20177;-75
2021/12/11 21:11:31;;;;;;;7.40;2.40;;;;;;;10.22;98.78;93334.00;5072732;28;20201;-74
2021/12/11 21:14:00;;;;;;;3.73;2.23;;;;;;;10.26;98.73;93339.56;5071701;28;20197;-74
2021/12/11 21:16:51;;;;;;;3.50;2.37;;;;;;;10.23;98.24;93338.22;5071323;28;20232;-74
2021/12/11 21:19:26;;;;;;;6.90;2.63;;;;;;;10.18;98.62;93352.13;5069315;28;20252;-74
2021/12/11 21:21:57;;;;;;;3.87;2.50;;;;;;;10.18;98.69;93357.38;5070133;28;20269;-75
2021/12/11 21:24:36;;;;;;;3.10;2.10;;;;;;;10.18;98.57;93370.53;5070727;28;20225;-74
2021/12/11 21:27:07;;;;;;;5.77;2.70;;;;;;;10.10;98.88;93378.81;5070546;28;20185;-75
2021/12/11 21:29:33;;;;;;;4.90;2.90;;;;;;;10.12;99.44;93383.81;5071380;28;20271;-74
2021/12/11 21:32:03;;;;;;;11.50;4.77;;;;;;;10.10;100.00;93391.97;5069003;28;20660;-74
2021/12/11 21:34:31;;;;;;;8.73;4.60;;;;;;;10.03;99.95;93380.03;5069734;28;21172;-74
2021/12/11 21:36:59;;;;;;;15.57;5.93;;;;;;;10.15;100.00;93407.00;5068326;28;20549;-75
2021/12/11 21:39:36;;;;;;;18.33;7.43;;;;;;;10.16;100.00;93419.09;5072220;28;20212;-74
2021/12/11 21:42:07;;;;;;;15.10;6.07;;;;;;;10.19;99.83;93419.44;5072110;28;20177;-74
2021/12/11 21:44:33;;;;;;;12.40;5.23;;;;;;;10.14;97.58;93427.22;5072026;28;20296;-75
2021/12/11 21:47:02;;;;;;;8.03;4.57;;;;;;;9.90;96.15;93433.72;5070232;28;20268;-74
2021/12/11 21:49:34;;;;;;;8.67;5.27;;;;;;;9.80;95.51;93415.19;5069800;28;20205;-75
2021/12/11 21:52:05;;;;;;;12.30;6.70;;;;;;;9.73;94.43;93440.84;5070882;28;20664;-75